sensor_id;sensor_type;location;lat;lon;timestamp;pressure;altitude;pressure_sealevel;temperature;humidity
29909;BME280;36247;51.952;6.146;2023-03-26T00:01:20;100583.09;;;7.90;100.00
29909;BME280;36247;51.952;6.146;2023-03-26T00:03:48;100582.25;;;7.91;100.00
29909;BME280;36247;51.952;6.146;2023-03-26T00:06:21;100579.59;;;7.91;100.00
29909;BME280;36247;51.952;6.146;2023-03-26T00:08:48;100580.41;;;7.89;100.00
29909;BME280;36247;51.952;6.146;2023-03-26T00:11:15;100578.75;;;7.94;100.00
29909;BME280;36247;51.952;6.146;2023-03-26T00:13:42;100570.97;;;7.99;100.00
29909;BME280;36247;51.952;6.146;2023-03-26T00:16:11;100577.16;;;8.01;100.00
29909;BME280;36247;51.952;6.146;2023-03-26T00:18:39;100578.06;;;8.04;100.00
29909;BME280;36247;51.952;6.146;2023-03-26T00:21:08;100573.78;;;8.08;100.00
29909;BME280;36247;51.952;6.146;2023-03-26T00:23:35;100580.78;;;8.07;100.00
29909;BME280;36247;51.952;6.146;2023-03-26T00:26:02;100579.97;;;8.10;100.00
29909;BME280;36247;51.952;6.146;2023-03-26T00:28:28;100577.34;;;8.11;100.00
29909;BME280;36247;51.952;6.146;2023-03-26T00:31:02;100575.66;;;8.14;100.00
29909;BME280;36247;51.952;6.146;2023-03-26T00:33:28;100567.63;;;8.10;100.00
29909;BME280;36247;51.952;6.146;2023-03-26T00:35:55;100557.13;;;8.12;100.00
29909;BME280;36247;51.952;6.146;2023-03-26T00:38:24;100555.53;;;8.20;100.00
29909;BME280;36247;51.952;6.146;2023-03-26T00:40:51;100551.94;;;8.15;100.00
29909;BME280;36247;51.952;6.146;2023-03-26T00:43:17;100551.00;;;8.13;100.00
29909;BME280;36247;51.952;6.146;2023-03-26T00:45:47;100537.97;;;8.22;100.00
29909;BME280;36247;51.952;6.146;2023-03-26T00:48:13;100546.69;;;8.17;100.00
29909;BME280;36247;51.952;6.146;2023-03-26T00:50:40;100539.59;;;8.14;100.00
29909;BME280;36247;51.952;6.146;2023-03-26T00:53:08;100540.47;;;8.15;100.00
29909;BME280;36247;51.952;6.146;2023-03-26T00:55:37;100528.25;;;8.18;100.00
29909;BME280;36247;51.952;6.146;2023-03-26T00:58:03;100534.34;;;8.16;100.00
29909;BME280;36247;51.952;6.146;2023-03-26T01:00:34;100535.22;;;8.16;100.00
29909;BME280;36247;51.952;6.146;2023-03-26T01:03:01;100534.31;;;8.14;100.00
29909;BME280;36247;51.952;6.146;2023-03-26T01:08:17;100526.34;;;8.11;100.00
29909;BME280;36247;51.952;6.146;2023-03-26T01:10:44;100531.59;;;8.09;100.00
29909;BME280;36247;51.952;6.146;2023-03-26T01:13:23;100519.34;;;8.15;100.00
29909;BME280;36247;51.952;6.146;2023-03-26T01:15:49;100517.59;;;8.14;100.00
29909;BME280;36247;51.952;6.146;2023-03-26T01:18:21;100514.06;;;8.13;100.00
29909;BME280;36247;51.952;6.146;2023-03-26T01:20:53;100508.81;;;8.16;100.00
29909;BME280;36247;51.952;6.146;2023-03-26T01:23:29;100507.16;;;8.20;100.00
29909;BME280;36247;51.952;6.146;2023-03-26T01:26:08;100503.56;;;8.18;100.00
29909;BME280;36247;51.952;6.146;2023-03-26T01:28:37;100502.59;;;8.11;100.00
29909;BME280;36247;51.952;6.146;2023-03-26T01:31:17;100504.25;;;8.07;100.00
29909;BME280;36247;51.952;6.146;2023-03-26T01:33:59;100496.41;;;8.10;100.00
29909;BME280;36247;51.952;6.146;2023-03-26T01:36:36;100498.28;;;8.16;100.00
29909;BME280;36247;51.952;6.146;2023-03-26T01:39:12;100494.69;;;8.12;100.00
29909;BME280;36247;51.952;6.146;2023-03-26T01:41:46;100488.56;;;8.14;100.00
29909;BME280;36247;51.952;6.146;2023-03-26T01:44:40;100486.81;;;8.14;100.00
29909;BME280;36247;51.952;6.146;2023-03-26T01:47:11;100487.75;;;8.18;100.00
29909;BME280;36247;51.952;6.146;2023-03-26T01:49:37;100479.75;;;8.13;100.00
29909;BME280;36247;51.952;6.146;2023-03-26T01:52:10;100482.41;;;8.15;100.00
29909;BME280;36247;51.952;6.146;2023-03-26T01:54:37;100474.56;;;8.19;100.00
29909;BME280;36247;51.952;6.146;2023-03-26T02:00:19;100475.66;;;8.30;100.00
29909;BME280;36247;51.952;6.146;2023-03-26T02:02:54;100464.13;;;8.25;100.00
29909;BME280;36247;51.952;6.146;2023-03-26T02:07:58;100454.41;;;8.21;100.00
29909;BME280;36247;51.952;6.146;2023-03-26T02:10:34;100458.84;;;8.25;100.00
29909;BME280;36247;51.952;6.146;2023-03-26T02:13:01;100451.72;;;8.18;100.00
29909;BME280;36247;51.952;6.146;2023-03-26T02:15:27;100446.41;;;8.17;100.00
29909;BME280;36247;51.952;6.146;2023-03-26T02:17:54;100435.91;;;8.20;100.00
29909;BME280;36247;51.952;6.146;2023-03-26T02:20:20;100441.09;;;8.15;100.00
29909;BME280;36247;51.952;6.146;2023-03-26T02:22:46;100428.75;;;8.14;100.00
29909;BME280;36247;51.952;6.146;2023-03-26T02:25:22;100439.28;;;8.11;100.00
29909;BME280;36247;51.952;6.146;2023-03-26T02:27:50;100435.84;;;8.17;100.00
29909;BME280;36247;51.952;6.146;2023-03-26T02:30:20;100436.63;;;8.11;100.00
29909;BME280;36247;51.952;6.146;2023-03-26T02:32:52;100436.59;;;8.09;100.00
29909;BME280;36247;51.952;6.146;2023-03-26T02:35:20;100429.53;;;8.08;100.00
29909;BME280;36247;51.952;6.146;2023-03-26T02:37:49;100419.88;;;8.09;100.00
29909;BME280;36247;51.952;6.146;2023-03-26T02:40:18;100417.13;;;8.03;100.00
29909;BME280;36247;51.952;6.146;2023-03-26T02:42:46;100414.44;;;8.00;100.00
29909;BME280;36247;51.952;6.146;2023-03-26T02:45:12;100411.91;;;8.06;100.00
29909;BME280;36247;51.952;6.146;2023-03-26T02:47:56;100411.03;;;8.07;100.00
29909;BME280;36247;51.952;6.146;2023-03-26T02:50:44;100411.03;;;8.07;100.00
29909;BME280;36247;51.952;6.146;2023-03-26T02:53:29;100412.69;;;7.99;100.00
29909;BME280;36247;51.952;6.146;2023-03-26T02:56:10;100413.53;;;7.98;100.00
29909;BME280;36247;51.952;6.146;2023-03-26T02:58:45;100412.63;;;7.97;100.00
29909;BME280;36247;51.952;6.146;2023-03-26T03:01:14;100414.31;;;7.93;100.00
29909;BME280;36247;51.952;6.146;2023-03-26T03:03:49;100415.22;;;7.94;100.00
29909;BME280;36247;51.952;6.146;2023-03-26T03:06:35;100407.22;;;7.89;100.00
29909;BME280;36247;51.952;6.146;2023-03-26T03:09:04;100394.91;;;7.88;100.00
29909;BME280;36247;51.952;6.146;2023-03-26T03:11:56;100400.19;;;7.88;100.00
29909;BME280;36247;51.952;6.146;2023-03-26T03:14:21;100393.06;;;7.84;100.00
29909;BME280;36247;51.952;6.146;2023-03-26T03:16:47;100397.50;;;7.85;100.00
29909;BME280;36247;51.952;6.146;2023-03-26T03:19:13;100386.03;;;7.85;100.00
29909;BME280;36247;51.952;6.146;2023-03-26T03:21:40;100390.41;;;7.83;100.00
29909;BME280;36247;51.952;6.146;2023-03-26T03:24:07;100381.59;;;7.82;100.00
29909;BME280;36247;51.952;6.146;2023-03-26T03:26:38;100378.13;;;7.85;100.00
29909;BME280;36247;51.952;6.146;2023-03-26T03:29:17;100367.53;;;7.82;100.00
29909;BME280;36247;51.952;6.146;2023-03-26T03:31:42;100370.22;;;7.85;100.00
29909;BME280;36247;51.952;6.146;2023-03-26T03:34:19;100363.22;;;7.85;100.00
29909;BME280;36247;51.952;6.146;2023-03-26T03:36:49;100364.16;;;7.90;100.00
29909;BME280;36247;51.952;6.146;2023-03-26T03:39:28;100367.63;;;7.88;100.00
29909;BME280;36247;51.952;6.146;2023-03-26T03:41:54;100364.00;;;7.80;100.00
29909;BME280;36247;51.952;6.146;2023-03-26T03:44:20;100363.13;;;7.82;100.00
29909;BME280;36247;51.952;6.146;2023-03-26T03:46:46;100355.28;;;7.84;100.00
29909;BME280;36247;51.952;6.146;2023-03-26T03:49:14;100360.56;;;7.85;100.00
29909;BME280;36247;51.952;6.146;2023-03-26T03:51:39;100357.84;;;7.82;100.00
29909;BME280;36247;51.952;6.146;2023-03-26T03:54:23;100366.69;;;7.84;100.00
29909;BME280;36247;51.952;6.146;2023-03-26T03:57:03;100363.28;;;7.90;100.00
29909;BME280;36247;51.952;6.146;2023-03-26T03:59:41;100359.75;;;7.89;100.00
29909;BME280;36247;51.952;6.146;2023-03-26T04:02:08;100360.56;;;7.85;100.00
29909;BME280;36247;51.952;6.146;2023-03-26T04:04:42;100358.06;;;7.93;100.00
29909;BME280;36247;51.952;6.146;2023-03-26T04:07:12;100351.00;;;7.92;100.00
29909;BME280;36247;51.952;6.146;2023-03-26T04:10:00;100347.66;;;8.02;100.00
29909;BME280;36247;51.952;6.146;2023-03-26T04:12:35;100345.91;;;8.04;100.00
29909;BME280;36247;51.952;6.146;2023-03-26T04:15:02;100338.63;;;7.89;100.00
29909;BME280;36247;51.952;6.146;2023-03-26T04:17:30;100340.63;;;8.03;100.00
29909;BME280;36247;51.952;6.146;2023-03-26T04:19:55;100336.22;;;8.02;100.00
29909;BME280;36247;51.952;6.146;2023-03-26T04:22:26;100323.97;;;8.05;100.00
29909;BME280;36247;51.952;6.146;2023-03-26T04:24:59;100330.16;;;8.09;100.00
29909;BME280;36247;51.952;6.146;2023-03-26T04:27:29;100326.72;;;8.13;100.00
29909;BME280;36247;51.952;6.146;2023-03-26T04:30:18;100319.59;;;8.09;100.00
29909;BME280;36247;51.952;6.146;2023-03-26T04:32:49;100320.50;;;8.08;100.00
29909;BME280;36247;51.952;6.146;2023-03-26T04:35:16;100324.06;;;8.11;100.00
29909;BME280;36247;51.952;6.146;2023-03-26T04:37:47;100313.38;;;8.02;100.00
29909;BME280;36247;51.952;6.146;2023-03-26T04:40:20;100313.38;;;8.02;100.00
29909;BME280;36247;51.952;6.146;2023-03-26T04:42:55;100313.34;;;8.01;100.00
29909;BME280;36247;51.952;6.146;2023-03-26T04:45:46;100306.31;;;8.03;100.00
29909;BME280;36247;51.952;6.146;2023-03-26T04:48:12;100302.81;;;8.02;100.00
29909;BME280;36247;51.952;6.146;2023-03-26T04:50:40;100299.28;;;8.00;100.00
29909;BME280;36247;51.952;6.146;2023-03-26T04:53:13;100295.00;;;8.08;100.00
29909;BME280;36247;51.952;6.146;2023-03-26T04:56:01;100293.25;;;8.10;100.00
29909;BME280;36247;51.952;6.146;2023-03-26T04:58:58;100285.34;;;8.12;100.00
29909;BME280;36247;51.952;6.146;2023-03-26T05:01:24;100282.66;;;8.09;100.00
29909;BME280;36247;51.952;6.146;2023-03-26T05:03:53;100276.59;;;8.15;100.00
29909;BME280;36247;51.952;6.146;2023-03-26T05:06:19;100276.50;;;8.07;100.00
29909;BME280;36247;51.952;6.146;2023-03-26T05:08:46;100276.41;;;8.01;100.00
29909;BME280;36247;51.952;6.146;2023-03-26T05:11:25;100275.50;;;7.99;100.00
29909;BME280;36247;51.952;6.146;2023-03-26T05:13:51;100275.41;;;7.94;100.00
29909;BME280;36247;51.952;6.146;2023-03-26T05:16:17;100272.97;;;8.06;100.00
29909;BME280;36247;51.952;6.146;2023-03-26T05:18:50;100271.13;;;8.01;100.00
29909;BME280;36247;51.952;6.146;2023-03-26T05:21:16;100268.44;;;7.96;100.00
29909;BME280;36247;51.952;6.146;2023-03-26T05:23:42;100260.66;;;8.07;100.00
29909;BME280;36247;51.952;6.146;2023-03-26T05:26:18;100259.69;;;7.99;100.00
29909;BME280;36247;51.952;6.146;2023-03-26T05:28:44;100256.13;;;7.97;100.00
29909;BME280;36247;51.952;6.146;2023-03-26T05:31:25;100252.66;;;8.01;100.00
29909;BME280;36247;51.952;6.146;2023-03-26T05:33:58;100249.94;;;7.94;100.00
29909;BME280;36247;51.952;6.146;2023-03-26T05:36:27;100253.53;;;8.01;100.00
29909;BME280;36247;51.952;6.146;2023-03-26T05:39:04;100238.63;;;8.02;100.00
29909;BME280;36247;51.952;6.146;2023-03-26T05:42:05;100238.66;;;8.03;100.00
29909;BME280;36247;51.952;6.146;2023-03-26T05:44:50;100238.63;;;8.02;100.00
29909;BME280;36247;51.952;6.146;2023-03-26T05:47:21;100235.97;;;8.00;100.00
29909;BME280;36247;51.952;6.146;2023-03-26T05:49:47;100235.03;;;7.98;100.00
29909;BME280;36247;51.952;6.146;2023-03-26T05:52:13;100222.59;;;7.89;100.00
29909;BME280;36247;51.952;6.146;2023-03-26T05:55:09;100215.69;;;7.96;100.00
29909;BME280;36247;51.952;6.146;2023-03-26T05:57:53;100214.75;;;7.94;100.00
29909;BME280;36247;51.952;6.146;2023-03-26T06:00:37;100211.25;;;7.95;100.00
29909;BME280;36247;51.952;6.146;2023-03-26T06:03:04;100219.25;;;8.01;100.00
29909;BME280;36247;51.952;6.146;2023-03-26T06:05:50;100210.34;;;7.91;100.00
29909;BME280;36247;51.952;6.146;2023-03-26T06:08:21;100200.72;;;7.97;100.00
29909;BME280;36247;51.952;6.146;2023-03-26T06:10:50;100198.06;;;7.95;100.00
29909;BME280;36247;51.952;6.146;2023-03-26T06:13:16;100191.09;;;7.99;100.00
29909;BME280;36247;51.952;6.146;2023-03-26T06:15:43;100178.72;;;7.93;100.00
29909;BME280;36247;51.952;6.146;2023-03-26T06:18:23;100176.00;;;7.88;100.00
29909;BME280;36247;51.952;6.146;2023-03-26T06:21:18;100177.69;;;7.85;100.00
29909;BME280;36247;51.952;6.146;2023-03-26T06:23:51;100175.19;;;7.95;100.00
29909;BME280;36247;51.952;6.146;2023-03-26T06:26:46;100179.59;;;7.93;100.00
29909;BME280;36247;51.952;6.146;2023-03-26T06:29:24;100155.81;;;7.92;100.00
29909;BME280;36247;51.952;6.146;2023-03-26T06:32:05;100159.50;;;8.02;100.00
29909;BME280;36247;51.952;6.146;2023-03-26T06:34:34;100160.28;;;7.96;100.00
29909;BME280;36247;51.952;6.146;2023-03-26T06:37:00;100151.47;;;7.97;100.00
29909;BME280;36247;51.952;6.146;2023-03-26T06:39:26;100157.72;;;8.02;100.00
29909;BME280;36247;51.952;6.146;2023-03-26T06:42:10;100157.69;;;7.99;100.00
29909;BME280;36247;51.952;6.146;2023-03-26T06:44:55;100152.47;;;8.04;100.00
29909;BME280;36247;51.952;6.146;2023-03-26T06:47:33;100155.97;;;8.03;100.00
29909;BME280;36247;51.952;6.146;2023-03-26T06:50:30;100154.22;;;8.02;100.00
29909;BME280;36247;51.952;6.146;2023-03-26T06:53:10;100152.47;;;8.04;100.00
29909;BME280;36247;51.952;6.146;2023-03-26T06:56:10;100162.97;;;8.01;100.00
29909;BME280;36247;51.952;6.146;2023-03-26T06:58:47;100163.06;;;8.07;100.00
29909;BME280;36247;51.952;6.146;2023-03-26T07:01:31;100163.94;;;8.09;100.00
29909;BME280;36247;51.952;6.146;2023-03-26T07:04:15;100167.47;;;8.08;100.00
29909;BME280;36247;51.952;6.146;2023-03-26T07:07:03;100165.72;;;8.08;100.00
29909;BME280;36247;51.952;6.146;2023-03-26T07:09:51;100156.19;;;8.18;100.00
29909;BME280;36247;51.952;6.146;2023-03-26T07:12:39;100162.25;;;8.11;100.00
29909;BME280;36247;51.952;6.146;2023-03-26T07:15:35;100156.88;;;8.03;100.00
29909;BME280;36247;51.952;6.146;2023-03-26T07:18:27;100157.88;;;8.16;100.00
29909;BME280;36247;51.952;6.146;2023-03-26T07:20:53;100159.75;;;8.23;100.00
29909;BME280;36247;51.952;6.146;2023-03-26T07:23:20;100156.00;;;8.06;100.00
29909;BME280;36247;51.952;6.146;2023-03-26T07:26:18;100158.91;;;8.26;100.00
29909;BME280;36247;51.952;6.146;2023-03-26T07:35:45;100147.41;;;8.22;100.00
29909;BME280;36247;51.952;6.146;2023-03-26T07:48:19;100130.16;;;8.49;100.00
29909;BME280;36247;51.952;6.146;2023-03-26T07:51:04;100129.91;;;8.29;100.00
29909;BME280;36247;51.952;6.146;2023-03-26T07:53:48;100135.22;;;8.30;100.00
29909;BME280;36247;51.952;6.146;2023-03-26T07:56:50;100127.25;;;8.26;100.00
29909;BME280;36247;51.952;6.146;2023-03-26T08:00:15;100124.69;;;8.34;100.00
29909;BME280;36247;51.952;6.146;2023-03-26T08:06:14;100122.72;;;8.17;100.00
29909;BME280;36247;51.952;6.146;2023-03-26T08:09:12;100119.06;;;8.06;100.00
29909;BME280;36247;51.952;6.146;2023-03-26T08:11:56;100118.22;;;8.08;100.00
29909;BME280;36247;51.952;6.146;2023-03-26T08:17:08;100122.44;;;7.94;100.00
29909;BME280;36247;51.952;6.146;2023-03-26T08:20:06;100116.50;;;8.12;100.00
29909;BME280;36247;51.952;6.146;2023-03-26T08:22:40;100119.25;;;8.18;100.00
29909;BME280;36247;51.952;6.146;2023-03-26T08:25:33;100119.31;;;8.24;100.00
29909;BME280;36247;51.952;6.146;2023-03-26T08:28:15;100128.84;;;8.13;100.00
29909;BME280;36247;51.952;6.146;2023-03-26T08:30:42;100122.56;;;8.03;100.00
29909;BME280;36247;51.952;6.146;2023-03-26T08:33:19;100124.53;;;8.18;100.00
29909;BME280;36247;51.952;6.146;2023-03-26T08:35:46;100128.03;;;8.19;100.00
29909;BME280;36247;51.952;6.146;2023-03-26T08:38:16;100126.25;;;8.18;100.00
29909;BME280;36247;51.952;6.146;2023-03-26T08:43:49;100117.47;;;8.17;100.00
29909;BME280;36247;51.952;6.146;2023-03-26T08:49:31;100124.47;;;8.15;100.00
29909;BME280;36247;51.952;6.146;2023-03-26T09:11:45;100119.72;;;7.88;100.00
29909;BME280;36247;51.952;6.146;2023-03-26T09:14:57;100124.22;;;7.97;100.00
29909;BME280;36247;51.952;6.146;2023-03-26T09:40:17;100107.41;;;8.60;100.00
29909;BME280;36247;51.952;6.146;2023-03-26T09:42:43;100110.91;;;8.58;100.00
29909;BME280;36247;51.952;6.146;2023-03-26T09:50:56;100112.75;;;8.67;100.00
29909;BME280;36247;51.952;6.146;2023-03-26T09:56:23;100109.50;;;9.00;100.00
29909;BME280;36247;51.952;6.146;2023-03-26T10:04:35;100111.38;;;9.10;100.00
29909;BME280;36247;51.952;6.146;2023-03-26T10:07:28;100108.91;;;9.32;100.00
29909;BME280;36247;51.952;6.146;2023-03-26T10:16:19;100105.50;;;9.51;100.00
29909;BME280;36247;51.952;6.146;2023-03-26T10:27:25;100099.41;;;9.62;100.00
29909;BME280;36247;51.952;6.146;2023-03-26T10:30:21;100109.22;;;9.83;100.00
29909;BME280;36247;51.952;6.146;2023-03-26T10:36:11;100102.25;;;10.00;100.00
29909;BME280;36247;51.952;6.146;2023-03-26T10:41:58;100101.44;;;10.20;100.00
29909;BME280;36247;51.952;6.146;2023-03-26T10:55:37;100102.28;;;10.14;100.00
29909;BME280;36247;51.952;6.146;2023-03-26T10:58:28;100100.59;;;10.30;100.00
29909;BME280;36247;51.952;6.146;2023-03-26T11:01:00;100102.31;;;10.23;100.00
29909;BME280;36247;51.952;6.146;2023-03-26T11:03:45;100099.66;;;10.22;100.00
29909;BME280;36247;51.952;6.146;2023-03-26T11:23:51;100123.19;;;9.59;100.00
29909;BME280;36247;51.952;6.146;2023-03-26T11:26:50;100124.81;;;9.38;100.00
29909;BME280;36247;51.952;6.146;2023-03-26T11:29:53;100125.59;;;9.26;100.00
29909;BME280;36247;51.952;6.146;2023-03-26T11:32:55;100129.88;;;9.12;100.00
29909;BME280;36247;51.952;6.146;2023-03-26T11:35:44;100127.19;;;9.07;100.00
29909;BME280;36247;51.952;6.146;2023-03-26T11:38:22;100134.16;;;8.96;100.00
29909;BME280;36247;51.952;6.146;2023-03-26T11:40:51;100136.75;;;8.90;100.00
29909;BME280;36247;51.952;6.146;2023-03-26T11:43:36;100137.53;;;8.81;100.00
29909;BME280;36247;51.952;6.146;2023-03-26T11:46:06;100139.41;;;8.91;100.00
29909;BME280;36247;51.952;6.146;2023-03-26T11:48:39;100130.44;;;8.75;100.00
29909;BME280;36247;51.952;6.146;2023-03-26T11:51:15;100141.03;;;8.78;100.00
29909;BME280;36247;51.952;6.146;2023-03-26T11:53:42;100141.06;;;8.83;100.00
29909;BME280;36247;51.952;6.146;2023-03-26T11:56:30;100133.00;;;8.66;100.00
29909;BME280;36247;51.952;6.146;2023-03-26T11:59:08;100140.91;;;8.66;100.00
29909;BME280;36247;51.952;6.146;2023-03-26T12:01:47;100149.59;;;8.56;100.00
29909;BME280;36247;51.952;6.146;2023-03-26T12:04:16;100151.44;;;8.61;100.00
29909;BME280;36247;51.952;6.146;2023-03-26T12:07:15;100147.09;;;8.70;100.00
29909;BME280;36247;51.952;6.146;2023-03-26T12:09:52;100151.47;;;8.64;100.00
29909;BME280;36247;51.952;6.146;2023-03-26T12:12:19;100152.41;;;8.71;100.00
29909;BME280;36247;51.952;6.146;2023-03-26T12:14:46;100144.44;;;8.68;100.00
29909;BME280;36247;51.952;6.146;2023-03-26T12:17:29;100150.72;;;8.76;100.00
29909;BME280;36247;51.952;6.146;2023-03-26T12:19:55;100151.63;;;8.83;100.00
29909;BME280;36247;51.952;6.146;2023-03-26T12:22:32;100146.47;;;8.95;100.00
29909;BME280;36247;51.952;6.146;2023-03-26T12:25:20;100149.13;;;8.97;100.00
29909;BME280;36247;51.952;6.146;2023-03-26T12:27:58;100151.72;;;8.92;100.00
29909;BME280;36247;51.952;6.146;2023-03-26T12:30:32;100153.66;;;9.12;100.00
29909;BME280;36247;51.952;6.146;2023-03-26T12:33:01;100161.59;;;9.13;100.00
29909;BME280;36247;51.952;6.146;2023-03-26T12:35:31;100158.16;;;9.24;100.00
29909;BME280;36247;51.952;6.146;2023-03-26T12:38:30;100165.97;;;9.10;100.00
29909;BME280;36247;51.952;6.146;2023-03-26T12:41:10;100166.63;;;8.82;100.00
29909;BME280;36247;51.952;6.146;2023-03-26T12:43:48;100169.06;;;8.65;100.00
29909;BME280;36247;51.952;6.146;2023-03-26T12:48:54;100165.22;;;8.42;100.00
29909;BME280;36247;51.952;6.146;2023-03-26T12:51:57;100167.81;;;8.37;100.00
29909;BME280;36247;51.952;6.146;2023-03-26T12:58:31;100174.16;;;8.47;100.00
29909;BME280;36247;51.952;6.146;2023-03-26T13:01:09;100170.50;;;8.42;100.00
29909;BME280;36247;51.952;6.146;2023-03-26T13:06:43;100174.75;;;8.26;100.00
29909;BME280;36247;51.952;6.146;2023-03-26T13:09:30;100185.41;;;8.35;100.00
29909;BME280;36247;51.952;6.146;2023-03-26T13:17:54;100177.28;;;8.18;100.00
29909;BME280;36247;51.952;6.146;2023-03-26T13:20:32;100188.78;;;8.25;100.00
29909;BME280;36247;51.952;6.146;2023-03-26T13:47:51;100201.28;;;8.38;100.00
29909;BME280;36247;51.952;6.146;2023-03-26T13:50:32;100204.72;;;8.33;100.00
29909;BME280;36247;51.952;6.146;2023-03-26T13:53:17;100202.16;;;8.39;100.00
29909;BME280;36247;51.952;6.146;2023-03-26T13:55:51;100210.22;;;8.45;100.00
29909;BME280;36247;51.952;6.146;2023-03-26T13:58:38;100209.34;;;8.47;100.00
29909;BME280;36247;51.952;6.146;2023-03-26T14:01:12;100207.31;;;8.29;100.00
29909;BME280;36247;51.952;6.146;2023-03-26T14:04:07;100214.53;;;8.43;100.00
29909;BME280;36247;51.952;6.146;2023-03-26T14:07:05;100215.28;;;8.33;100.00
29909;BME280;36247;51.952;6.146;2023-03-26T14:09:41;100212.66;;;8.34;100.00
29909;BME280;36247;51.952;6.146;2023-03-26T14:12:39;100218.88;;;8.38;100.00
29909;BME280;36247;51.952;6.146;2023-03-26T14:15:26;100217.25;;;8.46;100.00
29909;BME280;36247;51.952;6.146;2023-03-26T14:30:12;100229.34;;;9.05;100.00
29909;BME280;36247;51.952;6.146;2023-03-26T14:32:47;100230.13;;;8.93;100.00
29909;BME280;36247;51.952;6.146;2023-03-26T14:38:28;100234.44;;;8.88;100.00
29909;BME280;36247;51.952;6.146;2023-03-26T14:52:19;100259.22;;;8.96;100.00
29909;BME280;36247;51.952;6.146;2023-03-26T14:54:55;100261.88;;;8.99;100.00
29909;BME280;36247;51.952;6.146;2023-03-26T15:02:36;100270.53;;;8.86;100.00
29909;BME280;36247;51.952;6.146;2023-03-26T15:05:36;100279.25;;;8.80;100.00
29909;BME280;36247;51.952;6.146;2023-03-26T15:11:27;100292.00;;;9.14;100.00
29909;BME280;36247;51.952;6.146;2023-03-26T15:20:21;100295.44;;;9.07;100.00
29909;BME280;36247;51.952;6.146;2023-03-26T15:40:33;100316.81;;;8.56;100.00
29909;BME280;36247;51.952;6.146;2023-03-26T15:43:10;100325.56;;;8.52;100.00
29909;BME280;36247;51.952;6.146;2023-03-26T15:51:00;100350.19;;;8.51;100.00
29909;BME280;36247;51.952;6.146;2023-03-26T15:54:01;100352.88;;;8.53;100.00
29909;BME280;36247;51.952;6.146;2023-03-26T15:56:48;100366.72;;;8.41;100.00
29909;BME280;36247;51.952;6.146;2023-03-26T15:59:48;100369.28;;;8.35;100.00
29909;BME280;36247;51.952;6.146;2023-03-26T16:05:34;100382.53;;;8.38;100.00
29909;BME280;36247;51.952;6.146;2023-03-26T16:08:11;100378.00;;;8.30;100.00
29909;BME280;36247;51.952;6.146;2023-03-26T16:10:56;100384.78;;;8.15;100.00
29909;BME280;36247;51.952;6.146;2023-03-26T16:18:34;100409.25;;;8.06;100.00
29909;BME280;36247;51.952;6.146;2023-03-26T16:26:53;100428.16;;;7.80;100.00
29909;BME280;36247;51.952;6.146;2023-03-26T16:29:26;100432.06;;;7.55;100.00
29909;BME280;36247;51.952;6.146;2023-03-26T16:35:24;100443.56;;;7.57;100.00
29909;BME280;36247;51.952;6.146;2023-03-26T16:38:15;100450.47;;;7.52;100.00
29909;BME280;36247;51.952;6.146;2023-03-26T16:41:14;100453.97;;;7.52;100.00
29909;BME280;36247;51.952;6.146;2023-03-26T16:43:49;100459.16;;;7.48;100.00
29909;BME280;36247;51.952;6.146;2023-03-26T16:46:26;100476.03;;;7.56;100.00
29909;BME280;36247;51.952;6.146;2023-03-26T16:48:59;100471.56;;;7.52;100.00
29909;BME280;36247;51.952;6.146;2023-03-26T16:56:56;100481.81;;;7.38;100.00
29909;BME280;36247;51.952;6.146;2023-03-26T17:05:17;100502.13;;;7.42;100.00
29909;BME280;36247;51.952;6.146;2023-03-26T17:07:56;100518.59;;;7.32;100.00
29909;BME280;36247;51.952;6.146;2023-03-26T17:10:35;100521.97;;;7.26;100.00
29909;BME280;36247;51.952;6.146;2023-03-26T17:13:24;100524.59;;;7.26;100.00
29909;BME280;36247;51.952;6.146;2023-03-26T17:18:55;100532.28;;;7.15;100.00
29909;BME280;36247;51.952;6.146;2023-03-26T17:21:59;100549.69;;;7.10;100.00
29909;BME280;36247;51.952;6.146;2023-03-26T17:24:44;100561.22;;;7.14;100.00
29909;BME280;36247;51.952;6.146;2023-03-26T17:27:46;100560.19;;;7.09;100.00
29909;BME280;36247;51.952;6.146;2023-03-26T17:30:39;100569.69;;;7.00;100.00
29909;BME280;36247;51.952;6.146;2023-03-26T17:33:13;100576.78;;;7.04;100.00
29909;BME280;36247;51.952;6.146;2023-03-26T17:35:49;100579.06;;;6.89;100.00
29909;BME280;36247;51.952;6.146;2023-03-26T17:43:48;100592.75;;;6.76;100.00
29909;BME280;36247;51.952;6.146;2023-03-26T17:49:12;100605.75;;;6.68;100.00
29909;BME280;36247;51.952;6.146;2023-03-26T17:54:47;100611.66;;;6.59;100.00
29909;BME280;36247;51.952;6.146;2023-03-26T17:57:41;100629.69;;;6.44;100.00
29909;BME280;36247;51.952;6.146;2023-03-26T18:00:15;100637.69;;;6.48;100.00
29909;BME280;36247;51.952;6.146;2023-03-26T18:06:17;100652.44;;;6.43;100.00
29909;BME280;36247;51.952;6.146;2023-03-26T18:09:28;100666.06;;;6.28;100.00
29909;BME280;36247;51.952;6.146;2023-03-26T18:17:37;100681.81;;;6.27;100.00
29909;BME280;36247;51.952;6.146;2023-03-26T18:20:04;100683.25;;;6.15;100.00
29909;BME280;36247;51.952;6.146;2023-03-26T18:22:30;100686.06;;;6.22;100.00
29909;BME280;36247;51.952;6.146;2023-03-26T18:24:59;100696.41;;;6.15;100.00
29909;BME280;36247;51.952;6.146;2023-03-26T18:27:28;100697.84;;;6.06;100.00
29909;BME280;36247;51.952;6.146;2023-03-26T18:32:25;100713.78;;;6.10;100.00
29909;BME280;36247;51.952;6.146;2023-03-26T18:35:16;100721.53;;;6.06;100.00
29909;BME280;36247;51.952;6.146;2023-03-26T18:37:45;100732.88;;;6.03;100.00
29909;BME280;36247;51.952;6.146;2023-03-26T18:40:14;100731.06;;;6.02;100.00
29909;BME280;36247;51.952;6.146;2023-03-26T18:42:48;100733.09;;;6.11;100.00